sensor_id;sensor_type;location;lat;lon;timestamp;P1;durP1;ratioP1;P2;durP2;ratioP2
19969;SDS011;10146;47.754;9.566;2023-05-10T00:02:10;1.13;;;1.13;;
19969;SDS011;10146;47.754;9.566;2023-05-10T00:04:36;1.58;;;0.90;;
19969;SDS011;10146;47.754;9.566;2023-05-10T00:07:01;3.05;;;1.10;;
19969;SDS011;10146;47.754;9.566;2023-05-10T00:09:27;1.33;;;1.20;;
19969;SDS011;10146;47.754;9.566;2023-05-10T00:11:53;2.10;;;1.17;;
19969;SDS011;10146;47.754;9.566;2023-05-10T00:14:18;2.45;;;1.00;;
19969;SDS011;10146;47.754;9.566;2023-05-10T00:16:44;1.20;;;1.10;;
19969;SDS011;10146;47.754;9.566;2023-05-10T00:19:10;2.72;;;1.30;;
19969;SDS011;10146;47.754;9.566;2023-05-10T00:21:35;1.35;;;1.20;;
19969;SDS011;10146;47.754;9.566;2023-05-10T00:24:01;3.65;;;1.13;;
19969;SDS011;10146;47.754;9.566;2023-05-10T00:26:27;1.60;;;0.70;;
19969;SDS011;10146;47.754;9.566;2023-05-10T00:28:53;1.80;;;0.77;;
19969;SDS011;10146;47.754;9.566;2023-05-10T00:31:18;0.70;;;0.70;;
19969;SDS011;10146;47.754;9.566;2023-05-10T00:33:44;1.52;;;0.60;;
19969;SDS011;10146;47.754;9.566;2023-05-10T00:36:10;2.20;;;0.55;;
19969;SDS011;10146;47.754;9.566;2023-05-10T00:38:35;1.85;;;0.45;;
19969;SDS011;10146;47.754;9.566;2023-05-10T00:41:01;0.68;;;0.43;;
19969;SDS011;10146;47.754;9.566;2023-05-10T00:43:27;0.98;;;0.40;;
19969;SDS011;10146;47.754;9.566;2023-05-10T00:45:52;0.52;;;0.50;;
19969;SDS011;10146;47.754;9.566;2023-05-10T00:48:18;0.95;;;0.50;;
19969;SDS011;10146;47.754;9.566;2023-05-10T00:50:44;0.60;;;0.43;;
19969;SDS011;10146;47.754;9.566;2023-05-10T00:53:10;0.52;;;0.50;;
19969;SDS011;10146;47.754;9.566;2023-05-10T00:55:36;0.60;;;0.60;;
19969;SDS011;10146;47.754;9.566;2023-05-10T00:58:02;1.42;;;0.60;;
19969;SDS011;10146;47.754;9.566;2023-05-10T01:00:28;0.63;;;0.60;;
19969;SDS011;10146;47.754;9.566;2023-05-10T01:02:54;1.23;;;0.50;;
19969;SDS011;10146;47.754;9.566;2023-05-10T01:05:20;2.72;;;0.70;;
19969;SDS011;10146;47.754;9.566;2023-05-10T01:07:46;1.23;;;0.65;;
19969;SDS011;10146;47.754;9.566;2023-05-10T01:10:12;2.72;;;0.50;;
19969;SDS011;10146;47.754;9.566;2023-05-10T01:12:39;0.63;;;0.50;;
19969;SDS011;10146;47.754;9.566;2023-05-10T01:15:07;1.05;;;0.60;;
19969;SDS011;10146;47.754;9.566;2023-05-10T01:17:35;0.50;;;0.50;;
19969;SDS011;10146;47.754;9.566;2023-05-10T01:20:04;0.50;;;0.50;;
19969;SDS011;10146;47.754;9.566;2023-05-10T01:28:43;0.75;;;0.55;;
19969;SDS011;10146;47.754;9.566;2023-05-10T01:34:20;1.27;;;0.60;;
19969;SDS011;10146;47.754;9.566;2023-05-10T01:36:57;1.70;;;0.60;;
19969;SDS011;10146;47.754;9.566;2023-05-10T01:39:32;0.98;;;0.60;;
19969;SDS011;10146;47.754;9.566;2023-05-10T01:42:03;1.10;;;0.50;;
19969;SDS011;10146;47.754;9.566;2023-05-10T01:50:04;1.40;;;0.70;;
19969;SDS011;10146;47.754;9.566;2023-05-10T01:52:38;2.22;;;0.82;;
19969;SDS011;10146;47.754;9.566;2023-05-10T01:55:09;1.95;;;0.50;;
19969;SDS011;10146;47.754;9.566;2023-05-10T01:57:39;0.75;;;0.50;;
19969;SDS011;10146;47.754;9.566;2023-05-10T02:00:08;1.55;;;0.70;;
19969;SDS011;10146;47.754;9.566;2023-05-10T02:02:37;1.10;;;0.50;;
19969;SDS011;10146;47.754;9.566;2023-05-10T02:05:07;0.50;;;0.50;;
19969;SDS011;10146;47.754;9.566;2023-05-10T02:07:34;1.25;;;0.50;;
19969;SDS011;10146;47.754;9.566;2023-05-10T02:10:04;2.65;;;0.68;;
19969;SDS011;10146;47.754;9.566;2023-05-10T02:12:35;0.50;;;0.50;;
19969;SDS011;10146;47.754;9.566;2023-05-10T02:15:02;0.98;;;0.55;;
19969;SDS011;10146;47.754;9.566;2023-05-10T02:17:30;1.58;;;0.80;;
19969;SDS011;10146;47.754;9.566;2023-05-10T02:19:57;1.75;;;0.50;;
19969;SDS011;10146;47.754;9.566;2023-05-10T02:22:25;0.60;;;0.60;;
19969;SDS011;10146;47.754;9.566;2023-05-10T02:24:52;1.73;;;0.90;;
19969;SDS011;10146;47.754;9.566;2023-05-10T02:27:19;3.22;;;0.60;;
19969;SDS011;10146;47.754;9.566;2023-05-10T02:29:46;1.17;;;0.68;;
19969;SDS011;10146;47.754;9.566;2023-05-10T02:32:12;2.25;;;0.70;;
19969;SDS011;10146;47.754;9.566;2023-05-10T02:34:39;2.08;;;0.70;;
19969;SDS011;10146;47.754;9.566;2023-05-10T02:37:06;1.83;;;0.73;;
19969;SDS011;10146;47.754;9.566;2023-05-10T02:39:32;1.10;;;0.65;;
19969;SDS011;10146;47.754;9.566;2023-05-10T02:41:58;0.82;;;0.70;;
19969;SDS011;10146;47.754;9.566;2023-05-10T02:44:27;1.35;;;0.70;;
19969;SDS011;10146;47.754;9.566;2023-05-10T02:46:55;2.08;;;1.08;;
19969;SDS011;10146;47.754;9.566;2023-05-10T02:49:22;1.17;;;0.75;;
19969;SDS011;10146;47.754;9.566;2023-05-10T02:51:49;1.30;;;0.90;;
19969;SDS011;10146;47.754;9.566;2023-05-10T02:54:20;1.40;;;0.80;;
19969;SDS011;10146;47.754;9.566;2023-05-10T02:56:58;1.65;;;1.10;;
19969;SDS011;10146;47.754;9.566;2023-05-10T02:59:28;1.63;;;0.85;;
19969;SDS011;10146;47.754;9.566;2023-05-10T03:01:54;1.48;;;0.70;;
19969;SDS011;10146;47.754;9.566;2023-05-10T03:04:20;2.55;;;0.98;;
19969;SDS011;10146;47.754;9.566;2023-05-10T03:06:45;2.47;;;1.05;;
19969;SDS011;10146;47.754;9.566;2023-05-10T03:09:11;1.15;;;0.70;;
19969;SDS011;10146;47.754;9.566;2023-05-10T03:11:45;1.42;;;1.05;;
19969;SDS011;10146;47.754;9.566;2023-05-10T03:17:27;1.63;;;1.00;;
19969;SDS011;10146;47.754;9.566;2023-05-10T03:20:16;1.23;;;1.15;;
19969;SDS011;10146;47.754;9.566;2023-05-10T03:22:50;1.30;;;1.10;;
19969;SDS011;10146;47.754;9.566;2023-05-10T03:25:19;1.80;;;0.93;;
19969;SDS011;10146;47.754;9.566;2023-05-10T03:27:46;0.90;;;0.90;;
19969;SDS011;10146;47.754;9.566;2023-05-10T03:30:13;1.77;;;1.20;;
19969;SDS011;10146;47.754;9.566;2023-05-10T03:32:39;1.35;;;1.17;;
19969;SDS011;10146;47.754;9.566;2023-05-10T03:35:08;1.30;;;1.20;;
19969;SDS011;10146;47.754;9.566;2023-05-10T03:37:35;5.05;;;1.13;;
19969;SDS011;10146;47.754;9.566;2023-05-10T03:40:01;3.47;;;1.27;;
19969;SDS011;10146;47.754;9.566;2023-05-10T03:42:27;1.90;;;1.23;;
19969;SDS011;10146;47.754;9.566;2023-05-10T03:44:53;1.20;;;1.10;;
19969;SDS011;10146;47.754;9.566;2023-05-10T03:47:18;2.03;;;0.93;;
19969;SDS011;10146;47.754;9.566;2023-05-10T03:49:44;2.45;;;0.95;;
19969;SDS011;10146;47.754;9.566;2023-05-10T03:52:10;1.85;;;1.23;;
19969;SDS011;10146;47.754;9.566;2023-05-10T03:54:36;1.30;;;1.30;;
19969;SDS011;10146;47.754;9.566;2023-05-10T03:57:02;1.33;;;1.23;;
19969;SDS011;10146;47.754;9.566;2023-05-10T03:59:29;2.22;;;1.23;;
19969;SDS011;10146;47.754;9.566;2023-05-10T04:01:55;1.38;;;1.20;;
19969;SDS011;10146;47.754;9.566;2023-05-10T04:04:20;2.35;;;1.25;;
19969;SDS011;10146;47.754;9.566;2023-05-10T04:06:47;1.77;;;1.50;;
19969;SDS011;10146;47.754;9.566;2023-05-10T04:09:12;2.53;;;1.20;;
19969;SDS011;10146;47.754;9.566;2023-05-10T04:11:38;1.23;;;1.13;;
19969;SDS011;10146;47.754;9.566;2023-05-10T04:14:04;1.27;;;1.17;;
19969;SDS011;10146;47.754;9.566;2023-05-10T04:16:30;1.63;;;1.50;;
19969;SDS011;10146;47.754;9.566;2023-05-10T04:18:55;3.22;;;1.38;;
19969;SDS011;10146;47.754;9.566;2023-05-10T04:21:21;3.05;;;1.73;;
19969;SDS011;10146;47.754;9.566;2023-05-10T04:23:47;1.80;;;1.40;;
19969;SDS011;10146;47.754;9.566;2023-05-10T04:26:12;1.45;;;1.35;;
19969;SDS011;10146;47.754;9.566;2023-05-10T04:28:38;3.20;;;1.40;;
19969;SDS011;10146;47.754;9.566;2023-05-10T04:31:04;2.92;;;1.45;;
19969;SDS011;10146;47.754;9.566;2023-05-10T04:33:31;1.77;;;1.20;;
19969;SDS011;10146;47.754;9.566;2023-05-10T04:35:57;4.38;;;1.50;;
19969;SDS011;10146;47.754;9.566;2023-05-10T04:38:23;1.90;;;1.67;;
19969;SDS011;10146;47.754;9.566;2023-05-10T04:40:49;1.27;;;1.15;;
19969;SDS011;10146;47.754;9.566;2023-05-10T04:43:15;2.35;;;1.40;;
19969;SDS011;10146;47.754;9.566;2023-05-10T04:45:40;6.38;;;1.40;;
19969;SDS011;10146;47.754;9.566;2023-05-10T04:48:06;2.25;;;1.33;;
19969;SDS011;10146;47.754;9.566;2023-05-10T04:50:32;1.92;;;1.35;;
19969;SDS011;10146;47.754;9.566;2023-05-10T04:52:58;1.58;;;1.48;;
19969;SDS011;10146;47.754;9.566;2023-05-10T04:55:24;1.70;;;1.60;;
19969;SDS011;10146;47.754;9.566;2023-05-10T04:57:49;1.38;;;1.20;;
19969;SDS011;10146;47.754;9.566;2023-05-10T05:00:15;2.08;;;1.05;;
19969;SDS011;10146;47.754;9.566;2023-05-10T05:02:44;1.90;;;1.20;;
19969;SDS011;10146;47.754;9.566;2023-05-10T05:05:10;2.63;;;1.27;;
19969;SDS011;10146;47.754;9.566;2023-05-10T05:07:36;2.25;;;1.23;;
19969;SDS011;10146;47.754;9.566;2023-05-10T05:10:03;2.72;;;1.10;;
19969;SDS011;10146;47.754;9.566;2023-05-10T05:12:33;1.30;;;1.10;;
19969;SDS011;10146;47.754;9.566;2023-05-10T05:14:59;1.48;;;1.35;;
19969;SDS011;10146;47.754;9.566;2023-05-10T05:17:25;1.00;;;1.00;;
19969;SDS011;10146;47.754;9.566;2023-05-10T05:19:51;3.25;;;1.20;;
19969;SDS011;10146;47.754;9.566;2023-05-10T05:22:18;3.85;;;0.98;;
19969;SDS011;10146;47.754;9.566;2023-05-10T05:24:52;2.05;;;1.40;;
19969;SDS011;10146;47.754;9.566;2023-05-10T05:27:19;1.05;;;0.95;;
19969;SDS011;10146;47.754;9.566;2023-05-10T05:29:47;1.33;;;0.90;;
19969;SDS011;10146;47.754;9.566;2023-05-10T05:32:12;1.95;;;1.20;;
19969;SDS011;10146;47.754;9.566;2023-05-10T05:34:38;1.63;;;1.00;;
19969;SDS011;10146;47.754;9.566;2023-05-10T05:37:04;3.00;;;1.15;;
19969;SDS011;10146;47.754;9.566;2023-05-10T05:39:29;3.58;;;1.20;;
19969;SDS011;10146;47.754;9.566;2023-05-10T05:41:55;2.03;;;1.30;;
19969;SDS011;10146;47.754;9.566;2023-05-10T05:44:20;3.42;;;1.00;;
19969;SDS011;10146;47.754;9.566;2023-05-10T05:46:46;2.10;;;1.02;;
19969;SDS011;10146;47.754;9.566;2023-05-10T05:49:11;1.75;;;1.13;;
19969;SDS011;10146;47.754;9.566;2023-05-10T05:51:37;2.60;;;1.13;;
19969;SDS011;10146;47.754;9.566;2023-05-10T05:54:03;1.00;;;0.90;;
19969;SDS011;10146;47.754;9.566;2023-05-10T05:56:29;3.25;;;1.05;;
19969;SDS011;10146;47.754;9.566;2023-05-10T05:58:55;1.85;;;1.10;;
19969;SDS011;10146;47.754;9.566;2023-05-10T06:01:20;3.30;;;1.20;;
19969;SDS011;10146;47.754;9.566;2023-05-10T06:03:46;3.63;;;1.58;;
19969;SDS011;10146;47.754;9.566;2023-05-10T06:06:11;2.85;;;1.25;;
19969;SDS011;10146;47.754;9.566;2023-05-10T06:08:37;2.75;;;1.20;;
19969;SDS011;10146;47.754;9.566;2023-05-10T06:11:03;1.45;;;1.20;;
19969;SDS011;10146;47.754;9.566;2023-05-10T06:13:29;1.48;;;1.10;;
19969;SDS011;10146;47.754;9.566;2023-05-10T06:16:00;1.42;;;1.27;;
19969;SDS011;10146;47.754;9.566;2023-05-10T06:18:26;3.05;;;1.60;;
19969;SDS011;10146;47.754;9.566;2023-05-10T06:20:51;4.57;;;1.38;;
19969;SDS011;10146;47.754;9.566;2023-05-10T06:23:17;2.25;;;1.08;;
19969;SDS011;10146;47.754;9.566;2023-05-10T06:25:43;1.10;;;0.95;;
19969;SDS011;10146;47.754;9.566;2023-05-10T06:28:08;1.92;;;0.98;;
19969;SDS011;10146;47.754;9.566;2023-05-10T06:30:35;2.97;;;1.02;;
19969;SDS011;10146;47.754;9.566;2023-05-10T06:33:01;1.10;;;1.10;;
19969;SDS011;10146;47.754;9.566;2023-05-10T06:35:27;2.17;;;1.25;;
19969;SDS011;10146;47.754;9.566;2023-05-10T06:37:53;1.60;;;1.13;;
19969;SDS011;10146;47.754;9.566;2023-05-10T06:40:19;2.17;;;1.17;;
19969;SDS011;10146;47.754;9.566;2023-05-10T06:42:45;1.15;;;0.93;;
19969;SDS011;10146;47.754;9.566;2023-05-10T06:45:12;3.47;;;1.10;;
19969;SDS011;10146;47.754;9.566;2023-05-10T06:47:39;1.35;;;1.00;;
19969;SDS011;10146;47.754;9.566;2023-05-10T06:50:06;1.75;;;0.90;;
19969;SDS011;10146;47.754;9.566;2023-05-10T06:52:32;2.22;;;1.27;;
19969;SDS011;10146;47.754;9.566;2023-05-10T06:54:58;1.58;;;0.85;;
19969;SDS011;10146;47.754;9.566;2023-05-10T06:57:24;1.98;;;0.75;;
19969;SDS011;10146;47.754;9.566;2023-05-10T06:59:49;1.25;;;0.70;;
19969;SDS011;10146;47.754;9.566;2023-05-10T07:02:15;1.17;;;1.00;;
19969;SDS011;10146;47.754;9.566;2023-05-10T07:04:41;1.55;;;0.82;;
19969;SDS011;10146;47.754;9.566;2023-05-10T07:07:06;1.02;;;0.70;;
19969;SDS011;10146;47.754;9.566;2023-05-10T07:09:33;2.03;;;0.90;;
19969;SDS011;10146;47.754;9.566;2023-05-10T07:11:58;0.80;;;0.80;;
19969;SDS011;10146;47.754;9.566;2023-05-10T07:14:24;1.05;;;0.90;;
19969;SDS011;10146;47.754;9.566;2023-05-10T07:16:50;1.10;;;0.88;;
19969;SDS011;10146;47.754;9.566;2023-05-10T07:19:15;1.50;;;1.10;;
19969;SDS011;10146;47.754;9.566;2023-05-10T07:21:41;2.42;;;0.90;;
19969;SDS011;10146;47.754;9.566;2023-05-10T07:24:08;2.25;;;0.93;;
19969;SDS011;10146;47.754;9.566;2023-05-10T07:26:34;2.95;;;1.38;;
19969;SDS011;10146;47.754;9.566;2023-05-10T07:28:59;1.40;;;1.30;;
19969;SDS011;10146;47.754;9.566;2023-05-10T07:31:25;0.98;;;0.90;;
19969;SDS011;10146;47.754;9.566;2023-05-10T07:33:50;1.65;;;1.00;;
19969;SDS011;10146;47.754;9.566;2023-05-10T07:36:16;4.90;;;1.10;;
19969;SDS011;10146;47.754;9.566;2023-05-10T07:38:41;1.63;;;0.82;;
19969;SDS011;10146;47.754;9.566;2023-05-10T07:41:07;2.50;;;1.30;;
19969;SDS011;10146;47.754;9.566;2023-05-10T07:43:33;2.00;;;0.85;;
19969;SDS011;10146;47.754;9.566;2023-05-10T07:45:58;2.50;;;1.10;;
19969;SDS011;10146;47.754;9.566;2023-05-10T07:48:24;0.80;;;0.75;;
19969;SDS011;10146;47.754;9.566;2023-05-10T07:50:50;1.38;;;1.00;;
19969;SDS011;10146;47.754;9.566;2023-05-10T07:53:16;1.63;;;0.93;;
19969;SDS011;10146;47.754;9.566;2023-05-10T07:55:42;0.95;;;0.95;;
19969;SDS011;10146;47.754;9.566;2023-05-10T07:58:07;2.03;;;1.05;;
19969;SDS011;10146;47.754;9.566;2023-05-10T08:00:33;3.75;;;0.90;;
19969;SDS011;10146;47.754;9.566;2023-05-10T08:02:59;2.67;;;1.20;;
19969;SDS011;10146;47.754;9.566;2023-05-10T08:05:24;2.10;;;1.05;;
19969;SDS011;10146;47.754;9.566;2023-05-10T08:07:50;1.75;;;1.10;;
19969;SDS011;10146;47.754;9.566;2023-05-10T08:10:16;1.42;;;0.82;;
19969;SDS011;10146;47.754;9.566;2023-05-10T08:12:41;1.52;;;0.80;;
19969;SDS011;10146;47.754;9.566;2023-05-10T08:15:07;2.17;;;0.77;;
19969;SDS011;10146;47.754;9.566;2023-05-10T08:17:33;3.35;;;1.05;;
19969;SDS011;10146;47.754;9.566;2023-05-10T08:19:59;1.42;;;0.63;;
19969;SDS011;10146;47.754;9.566;2023-05-10T08:22:25;2.85;;;1.00;;
19969;SDS011;10146;47.754;9.566;2023-05-10T08:24:51;1.80;;;0.80;;
19969;SDS011;10146;47.754;9.566;2023-05-10T08:27:16;1.17;;;0.60;;
19969;SDS011;10146;47.754;9.566;2023-05-10T08:29:42;1.92;;;0.63;;
19969;SDS011;10146;47.754;9.566;2023-05-10T08:32:07;2.05;;;0.70;;
19969;SDS011;10146;47.754;9.566;2023-05-10T08:34:33;2.58;;;0.60;;
19969;SDS011;10146;47.754;9.566;2023-05-10T08:36:58;1.88;;;0.73;;
19969;SDS011;10146;47.754;9.566;2023-05-10T08:39:24;2.08;;;0.80;;
19969;SDS011;10146;47.754;9.566;2023-05-10T08:41:51;1.48;;;0.80;;
19969;SDS011;10146;47.754;9.566;2023-05-10T08:44:19;1.27;;;0.80;;
19969;SDS011;10146;47.754;9.566;2023-05-10T08:46:45;2.40;;;0.80;;
19969;SDS011;10146;47.754;9.566;2023-05-10T08:49:13;2.30;;;0.90;;
19969;SDS011;10146;47.754;9.566;2023-05-10T08:51:43;0.80;;;0.80;;
19969;SDS011;10146;47.754;9.566;2023-05-10T08:54:19;1.85;;;0.82;;
19969;SDS011;10146;47.754;9.566;2023-05-10T08:56:47;2.08;;;0.68;;
19969;SDS011;10146;47.754;9.566;2023-05-10T08:59:12;2.72;;;0.95;;
19969;SDS011;10146;47.754;9.566;2023-05-10T09:01:39;1.40;;;0.63;;
19969;SDS011;10146;47.754;9.566;2023-05-10T09:04:06;1.45;;;0.60;;
19969;SDS011;10146;47.754;9.566;2023-05-10T09:06:31;2.65;;;0.50;;
19969;SDS011;10146;47.754;9.566;2023-05-10T09:08:59;3.17;;;0.50;;
19969;SDS011;10146;47.754;9.566;2023-05-10T09:11:25;2.35;;;0.50;;
19969;SDS011;10146;47.754;9.566;2023-05-10T09:13:53;0.40;;;0.40;;
19969;SDS011;10146;47.754;9.566;2023-05-10T09:16:20;1.10;;;0.30;;
19969;SDS011;10146;47.754;9.566;2023-05-10T09:18:46;0.65;;;0.30;;
19969;SDS011;10146;47.754;9.566;2023-05-10T09:21:12;0.57;;;0.40;;
19969;SDS011;10146;47.754;9.566;2023-05-10T09:23:42;1.00;;;0.60;;
19969;SDS011;10146;47.754;9.566;2023-05-10T09:26:08;0.40;;;0.25;;
19969;SDS011;10146;47.754;9.566;2023-05-10T09:28:34;1.00;;;0.40;;
19969;SDS011;10146;47.754;9.566;2023-05-10T09:31:15;1.92;;;0.40;;
19969;SDS011;10146;47.754;9.566;2023-05-10T09:33:43;0.85;;;0.80;;
19969;SDS011;10146;47.754;9.566;2023-05-10T09:36:13;0.47;;;0.40;;
19969;SDS011;10146;47.754;9.566;2023-05-10T09:41:20;0.73;;;0.47;;
19969;SDS011;10146;47.754;9.566;2023-05-10T09:43:48;0.50;;;0.43;;
19969;SDS011;10146;47.754;9.566;2023-05-10T09:46:15;0.50;;;0.50;;
19969;SDS011;10146;47.754;9.566;2023-05-10T09:48:41;2.17;;;0.50;;
19969;SDS011;10146;47.754;9.566;2023-05-10T09:51:08;1.50;;;0.80;;
19969;SDS011;10146;47.754;9.566;2023-05-10T09:53:34;0.82;;;0.60;;
19969;SDS011;10146;47.754;9.566;2023-05-10T09:56:00;1.65;;;0.65;;
19969;SDS011;10146;47.754;9.566;2023-05-10T09:58:25;1.13;;;0.70;;
19969;SDS011;10146;47.754;9.566;2023-05-10T10:00:51;1.40;;;0.50;;
19969;SDS011;10146;47.754;9.566;2023-05-10T10:03:19;1.92;;;0.70;;
19969;SDS011;10146;47.754;9.566;2023-05-10T10:05:46;1.45;;;0.50;;
19969;SDS011;10146;47.754;9.566;2023-05-10T10:08:13;1.13;;;0.70;;
19969;SDS011;10146;47.754;9.566;2023-05-10T10:10:39;0.77;;;0.70;;
19969;SDS011;10146;47.754;9.566;2023-05-10T10:13:06;1.40;;;0.80;;
19969;SDS011;10146;47.754;9.566;2023-05-10T10:15:33;2.00;;;0.75;;
19969;SDS011;10146;47.754;9.566;2023-05-10T10:18:11;1.42;;;0.70;;
19969;SDS011;10146;47.754;9.566;2023-05-10T10:20:39;2.78;;;1.02;;
19969;SDS011;10146;47.754;9.566;2023-05-10T10:23:05;1.90;;;0.80;;
19969;SDS011;10146;47.754;9.566;2023-05-10T10:25:31;2.17;;;0.85;;
19969;SDS011;10146;47.754;9.566;2023-05-10T10:28:00;1.95;;;0.70;;
19969;SDS011;10146;47.754;9.566;2023-05-10T10:30:43;1.40;;;0.90;;
19969;SDS011;10146;47.754;9.566;2023-05-10T10:36:15;1.70;;;0.90;;
19969;SDS011;10146;47.754;9.566;2023-05-10T10:41:28;1.75;;;1.25;;
19969;SDS011;10146;47.754;9.566;2023-05-10T10:50:01;3.28;;;1.10;;
19969;SDS011;10146;47.754;9.566;2023-05-10T10:52:23;1.05;;;0.93;;
19969;SDS011;10146;47.754;9.566;2023-05-10T11:02:58;2.10;;;0.88;;
19969;SDS011;10146;47.754;9.566;2023-05-10T11:05:46;2.20;;;1.00;;
19969;SDS011;10146;47.754;9.566;2023-05-10T11:08:27;2.80;;;1.15;;
19969;SDS011;10146;47.754;9.566;2023-05-10T11:13:28;1.77;;;0.90;;
19969;SDS011;10146;47.754;9.566;2023-05-10T11:18:41;1.42;;;1.00;;
19969;SDS011;10146;47.754;9.566;2023-05-10T11:21:23;1.75;;;1.00;;
19969;SDS011;10146;47.754;9.566;2023-05-10T11:23:49;2.47;;;1.00;;
19969;SDS011;10146;47.754;9.566;2023-05-10T11:26:16;2.40;;;0.80;;
19969;SDS011;10146;47.754;9.566;2023-05-10T11:28:43;2.42;;;0.88;;
19969;SDS011;10146;47.754;9.566;2023-05-10T11:31:10;1.80;;;0.82;;
19969;SDS011;10146;47.754;9.566;2023-05-10T11:33:44;1.65;;;1.00;;
19969;SDS011;10146;47.754;9.566;2023-05-10T11:36:15;2.00;;;1.02;;
19969;SDS011;10146;47.754;9.566;2023-05-10T11:38:42;4.97;;;1.15;;
19969;SDS011;10146;47.754;9.566;2023-05-10T11:41:09;2.00;;;0.57;;
19969;SDS011;10146;47.754;9.566;2023-05-10T11:43:36;1.20;;;0.30;;
19969;SDS011;10146;47.754;9.566;2023-05-10T11:46:04;1.77;;;0.32;;
19969;SDS011;10146;47.754;9.566;2023-05-10T11:48:31;0.82;;;0.55;;
19969;SDS011;10146;47.754;9.566;2023-05-10T11:50:57;1.33;;;0.22;;
19969;SDS011;10146;47.754;9.566;2023-05-10T11:53:23;0.30;;;0.20;;
19969;SDS011;10146;47.754;9.566;2023-05-10T11:55:51;1.23;;;0.30;;
19969;SDS011;10146;47.754;9.566;2023-05-10T11:58:17;0.55;;;0.40;;
19969;SDS011;10146;47.754;9.566;2023-05-10T12:00:43;1.55;;;0.32;;
19969;SDS011;10146;47.754;9.566;2023-05-10T12:03:10;1.38;;;0.40;;
19969;SDS011;10146;47.754;9.566;2023-05-10T12:05:36;1.83;;;0.60;;
19969;SDS011;10146;47.754;9.566;2023-05-10T12:08:15;1.02;;;0.43;;
19969;SDS011;10146;47.754;9.566;2023-05-10T12:10:45;2.88;;;0.43;;
19969;SDS011;10146;47.754;9.566;2023-05-10T12:13:11;0.52;;;0.30;;
19969;SDS011;10146;47.754;9.566;2023-05-10T12:15:40;0.70;;;0.68;;
19969;SDS011;10146;47.754;9.566;2023-05-10T12:18:11;0.57;;;0.30;;
19969;SDS011;10146;47.754;9.566;2023-05-10T12:20:37;0.38;;;0.30;;
19969;SDS011;10146;47.754;9.566;2023-05-10T12:23:03;4.70;;;0.93;;
19969;SDS011;10146;47.754;9.566;2023-05-10T12:25:31;2.60;;;0.40;;
19969;SDS011;10146;47.754;9.566;2023-05-10T12:28:05;0.75;;;0.43;;
19969;SDS011;10146;47.754;9.566;2023-05-10T12:30:32;1.15;;;0.65;;
19969;SDS011;10146;47.754;9.566;2023-05-10T12:32:59;1.48;;;0.70;;
19969;SDS011;10146;47.754;9.566;2023-05-10T12:35:29;1.60;;;0.60;;
19969;SDS011;10146;47.754;9.566;2023-05-10T12:37:55;0.65;;;0.35;;
19969;SDS011;10146;47.754;9.566;2023-05-10T12:40:21;1.45;;;0.70;;
19969;SDS011;10146;47.754;9.566;2023-05-10T12:42:46;2.22;;;0.60;;
19969;SDS011;10146;47.754;9.566;2023-05-10T12:45:13;4.70;;;2.08;;
19969;SDS011;10146;47.754;9.566;2023-05-10T12:47:39;2.15;;;0.80;;
19969;SDS011;10146;47.754;9.566;2023-05-10T12:50:05;2.70;;;0.82;;
19969;SDS011;10146;47.754;9.566;2023-05-10T12:52:31;0.50;;;0.50;;
19969;SDS011;10146;47.754;9.566;2023-05-10T12:54:57;2.92;;;0.55;;
19969;SDS011;10146;47.754;9.566;2023-05-10T12:57:24;1.15;;;0.40;;
19969;SDS011;10146;47.754;9.566;2023-05-10T12:59:50;1.17;;;0.40;;
19969;SDS011;10146;47.754;9.566;2023-05-10T13:02:16;1.15;;;0.50;;
19969;SDS011;10146;47.754;9.566;2023-05-10T13:04:45;0.50;;;0.50;;
19969;SDS011;10146;47.754;9.566;2023-05-10T13:07:12;2.22;;;0.43;;
19969;SDS011;10146;47.754;9.566;2023-05-10T13:09:38;1.33;;;0.70;;
19969;SDS011;10146;47.754;9.566;2023-05-10T13:12:03;1.67;;;0.60;;
19969;SDS011;10146;47.754;9.566;2023-05-10T13:14:29;1.15;;;0.77;;
19969;SDS011;10146;47.754;9.566;2023-05-10T13:16:56;2.60;;;0.90;;
19969;SDS011;10146;47.754;9.566;2023-05-10T13:19:21;3.00;;;0.80;;
19969;SDS011;10146;47.754;9.566;2023-05-10T13:21:47;1.95;;;0.88;;
19969;SDS011;10146;47.754;9.566;2023-05-10T13:24:12;2.88;;;0.90;;
19969;SDS011;10146;47.754;9.566;2023-05-10T13:26:39;3.88;;;1.10;;
19969;SDS011;10146;47.754;9.566;2023-05-10T13:29:05;2.67;;;0.88;;
19969;SDS011;10146;47.754;9.566;2023-05-10T13:31:31;3.58;;;1.20;;
19969;SDS011;10146;47.754;9.566;2023-05-10T13:33:58;2.88;;;1.00;;
19969;SDS011;10146;47.754;9.566;2023-05-10T13:36:23;2.15;;;0.98;;
19969;SDS011;10146;47.754;9.566;2023-05-10T13:38:49;3.60;;;0.90;;
19969;SDS011;10146;47.754;9.566;2023-05-10T13:41:14;3.70;;;1.17;;
19969;SDS011;10146;47.754;9.566;2023-05-10T13:43:40;1.35;;;0.82;;
19969;SDS011;10146;47.754;9.566;2023-05-10T13:46:05;2.42;;;0.98;;
19969;SDS011;10146;47.754;9.566;2023-05-10T13:48:31;1.75;;;1.00;;
19969;SDS011;10146;47.754;9.566;2023-05-10T13:50:57;2.40;;;1.08;;
19969;SDS011;10146;47.754;9.566;2023-05-10T13:53:22;5.30;;;1.40;;
19969;SDS011;10146;47.754;9.566;2023-05-10T13:55:48;3.35;;;1.60;;
19969;SDS011;10146;47.754;9.566;2023-05-10T13:58:14;2.95;;;1.20;;
19969;SDS011;10146;47.754;9.566;2023-05-10T14:00:39;3.15;;;1.40;;
19969;SDS011;10146;47.754;9.566;2023-05-10T14:03:05;6.07;;;1.38;;
19969;SDS011;10146;47.754;9.566;2023-05-10T14:05:31;6.07;;;1.30;;
19969;SDS011;10146;47.754;9.566;2023-05-10T14:07:57;3.83;;;1.10;;
19969;SDS011;10146;47.754;9.566;2023-05-10T14:10:23;2.83;;;1.20;;
19969;SDS011;10146;47.754;9.566;2023-05-10T14:12:49;3.95;;;1.58;;
19969;SDS011;10146;47.754;9.566;2023-05-10T14:15:15;3.50;;;1.52;;
19969;SDS011;10146;47.754;9.566;2023-05-10T14:17:40;3.78;;;1.33;;
19969;SDS011;10146;47.754;9.566;2023-05-10T14:20:06;3.78;;;1.33;;
19969;SDS011;10146;47.754;9.566;2023-05-10T14:22:33;4.30;;;1.27;;
19969;SDS011;10146;47.754;9.566;2023-05-10T14:24:59;4.10;;;1.50;;
19969;SDS011;10146;47.754;9.566;2023-05-10T14:27:25;4.07;;;1.30;;
19969;SDS011;10146;47.754;9.566;2023-05-10T14:29:51;3.63;;;1.40;;
19969;SDS011;10146;47.754;9.566;2023-05-10T14:32:16;2.40;;;1.42;;
19969;SDS011;10146;47.754;9.566;2023-05-10T14:34:42;3.20;;;1.40;;
19969;SDS011;10146;47.754;9.566;2023-05-10T14:37:10;2.13;;;1.27;;
19969;SDS011;10146;47.754;9.566;2023-05-10T14:39:36;2.95;;;1.30;;
19969;SDS011;10146;47.754;9.566;2023-05-10T14:42:02;2.88;;;1.10;;
19969;SDS011;10146;47.754;9.566;2023-05-10T14:44:28;3.72;;;1.15;;
19969;SDS011;10146;47.754;9.566;2023-05-10T14:46:54;4.07;;;1.55;;
19969;SDS011;10146;47.754;9.566;2023-05-10T14:49:20;2.70;;;1.20;;
19969;SDS011;10146;47.754;9.566;2023-05-10T14:51:47;3.60;;;1.00;;
19969;SDS011;10146;47.754;9.566;2023-05-10T14:54:13;5.68;;;1.40;;
19969;SDS011;10146;47.754;9.566;2023-05-10T14:56:39;3.30;;;0.90;;
19969;SDS011;10146;47.754;9.566;2023-05-10T14:59:06;3.22;;;1.10;;
19969;SDS011;10146;47.754;9.566;2023-05-10T15:01:32;6.57;;;1.13;;
19969;SDS011;10146;47.754;9.566;2023-05-10T15:03:59;3.97;;;0.93;;
19969;SDS011;10146;47.754;9.566;2023-05-10T15:06:34;1.33;;;0.80;;
19969;SDS011;10146;47.754;9.566;2023-05-10T15:09:01;1.77;;;0.80;;
19969;SDS011;10146;47.754;9.566;2023-05-10T15:11:28;2.15;;;0.90;;
19969;SDS011;10146;47.754;9.566;2023-05-10T15:13:54;2.22;;;1.05;;
19969;SDS011;10146;47.754;9.566;2023-05-10T15:16:20;1.58;;;0.90;;
19969;SDS011;10146;47.754;9.566;2023-05-10T15:18:46;1.90;;;0.90;;
19969;SDS011;10146;47.754;9.566;2023-05-10T15:21:11;2.22;;;0.88;;
19969;SDS011;10146;47.754;9.566;2023-05-10T15:23:37;2.03;;;0.80;;
19969;SDS011;10146;47.754;9.566;2023-05-10T15:26:03;1.85;;;0.80;;
19969;SDS011;10146;47.754;9.566;2023-05-10T15:28:28;3.63;;;1.10;;
19969;SDS011;10146;47.754;9.566;2023-05-10T15:30:54;2.42;;;1.00;;
19969;SDS011;10146;47.754;9.566;2023-05-10T15:33:21;3.28;;;1.35;;